Time;durP1;ratioP1;P1;durP2;ratioP2;P2;SDS_P1;SDS_P2;PMS_P1;PMS_P2;Temp;Humidity;BMP_temperature;BMP_pressure;BME280_temperature;BME280_humidity;BME280_pressure;Samples;Min_cycle;Max_cycle;Signal;HPM_P1;HPM_P2
2022/03/10 00:02:20;;;;;;;27.77;9.87;;;;;;;-2.48;89.38;101485.47;4182898;28;20328;-76
2022/03/10 00:04:50;;;;;;;26.93;9.87;;;;;;;-2.52;89.18;101479.50;4174543;28;20756;-75
2022/03/10 00:07:17;;;;;;;21.77;8.93;;;;;;;-2.62;89.44;101484.06;4166278;28;20265;-79
2022/03/10 00:09:43;;;;;;;20.17;9.13;;;;;;;-2.51;89.15;101480.34;4167551;28;22967;-78
2022/03/10 00:12:10;;;;;;;18.97;9.20;;;;;;;-2.48;88.32;101485.47;4164527;28;21237;-75
2022/03/10 00:14:36;;;;;;;20.90;9.27;;;;;;;-2.60;88.89;101494.44;4172189;28;21783;-77
2022/03/10 00:17:03;;;;;;;23.47;9.10;;;;;;;-2.53;88.37;101498.63;4188271;28;20250;-76
2022/03/10 00:19:30;;;;;;;24.33;8.57;;;;;;;-2.52;87.68;101495.13;4174700;28;21852;-76
2022/03/10 00:21:56;;;;;;;25.13;9.03;;;;;;;-2.59;87.80;101499.63;4177162;28;22095;-77
2022/03/10 00:24:23;;;;;;;24.43;9.57;;;;;;;-2.64;87.63;101493.69;4177724;28;20620;-76
2022/03/10 00:26:50;;;;;;;26.87;10.13;;;;;;;-2.58;87.64;101492.66;4184219;28;20403;-75
2022/03/10 00:29:16;;;;;;;25.27;9.53;;;;;;;-2.58;87.64;101497.88;4187182;28;20659;-77
2022/03/10 00:31:44;;;;;;;20.10;8.87;;;;;;;-2.61;87.52;101511.84;4186399;28;20241;-77
2022/03/10 00:34:11;;;;;;;26.90;9.83;;;;;;;-2.68;87.71;101510.25;4185074;28;20229;-76
2022/03/10 00:36:38;;;;;;;25.40;9.53;;;;;;;-2.68;87.38;101505.06;4186885;28;20246;-75
2022/03/10 00:39:05;;;;;;;21.80;9.83;;;;;;;-2.67;87.04;101512.00;4181600;28;21424;-78
2022/03/10 00:41:31;;;;;;;25.40;8.93;;;;;;;-2.77;87.42;101515.66;4194865;28;20245;-76
2022/03/10 00:43:58;;;;;;;24.83;9.67;;;;;;;-2.70;87.54;101519.00;4217400;28;20779;-78
2022/03/10 00:46:24;;;;;;;23.73;9.37;;;;;;;-2.78;87.00;101525.25;4198600;28;20376;-76
2022/03/10 00:48:51;;;;;;;24.53;10.10;;;;;;;-2.84;87.54;101527.97;4191581;28;20244;-77
2022/03/10 00:51:18;;;;;;;27.17;10.10;;;;;;;-2.86;87.67;101534.09;4193757;28;23618;-77
2022/03/10 00:53:45;;;;;;;25.30;10.03;;;;;;;-2.94;87.95;101528.22;4183941;28;22943;-78
2022/03/10 00:56:11;;;;;;;24.20;10.40;;;;;;;-2.88;87.87;101541.06;4189413;28;20248;-75
2022/03/10 00:58:38;;;;;;;21.50;9.13;;;;;;;-2.82;87.33;101538.34;4187682;28;20912;-76
2022/03/10 01:01:10;;;;;;;26.13;9.87;;;;;;;-2.90;87.45;101542.84;4190073;28;21107;-75
2022/03/10 01:03:37;;;;;;;26.10;10.03;;;;;;;-2.90;87.47;101537.66;4186615;28;21168;-78
2022/03/10 01:06:04;;;;;;;23.47;9.90;;;;;;;-2.99;87.45;101539.56;4184926;28;22505;-77
2022/03/10 01:08:30;;;;;;;23.77;9.80;;;;;;;-2.94;87.35;101551.66;4193196;28;20248;-76
2022/03/10 01:10:57;;;;;;;21.07;9.50;;;;;;;-2.99;87.35;101557.78;4190371;28;20245;-77
2022/03/10 01:13:23;;;;;;;25.17;10.33;;;;;;;-3.02;87.52;101552.66;4185417;28;21752;-79
2022/03/10 01:15:50;;;;;;;25.17;10.00;;;;;;;-3.09;87.85;101555.38;4193033;28;20738;-78
2022/03/10 01:18:17;;;;;;;23.73;10.07;;;;;;;-3.08;87.90;101549.31;4191094;28;22903;-77
2022/03/10 01:20:43;;;;;;;24.67;9.50;;;;;;;-2.97;87.62;101555.16;4175018;28;20665;-75
2022/03/10 01:23:10;;;;;;;26.13;9.73;;;;;;;-2.96;87.32;101567.28;4182852;28;20498;-76
2022/03/10 01:25:37;;;;;;;22.30;8.93;;;;;;;-2.94;87.00;101569.88;4189774;28;20238;-75
2022/03/10 01:28:05;;;;;;;22.80;10.10;;;;;;;-3.06;86.97;101571.81;4201290;28;23137;-76
2022/03/10 01:30:31;;;;;;;24.10;9.23;;;;;;;-3.10;87.61;101575.38;4174446;28;21305;-75
2022/03/10 01:32:59;;;;;;;22.17;9.40;;;;;;;-3.08;87.36;101580.56;4190654;28;21045;-77
2022/03/10 01:35:26;;;;;;;25.20;9.33;;;;;;;-3.11;87.34;101578.88;4180525;28;20260;-77
2022/03/10 01:37:52;;;;;;;23.97;9.10;;;;;;;-3.17;87.29;101583.34;4191835;28;20257;-75
2022/03/10 01:40:19;;;;;;;23.70;9.57;;;;;;;-3.08;87.03;101588.38;4191328;28;20240;-76
2022/03/10 01:42:47;;;;;;;24.37;9.50;;;;;;;-3.14;87.15;101593.69;4187158;28;20543;-74
2022/03/10 01:45:14;;;;;;;26.77;10.27;;;;;;;-3.12;87.26;101592.75;4201096;28;20692;-77
2022/03/10 01:47:41;;;;;;;22.33;8.77;;;;;;;-3.20;87.34;101587.72;4180053;28;20287;-76
2022/03/10 01:50:10;;;;;;;24.90;10.37;;;;;;;-3.24;87.61;101593.84;4182735;28;20279;-77
2022/03/10 01:52:37;;;;;;;29.80;9.87;;;;;;;-3.26;87.18;101593.00;4185552;28;20257;-78
2022/03/10 01:55:04;;;;;;;24.87;9.50;;;;;;;-3.15;87.19;101598.03;4188615;28;20292;-77
2022/03/10 01:57:31;;;;;;;23.27;9.10;;;;;;;-3.23;86.86;101600.78;4185607;28;20225;-76
2022/03/10 01:59:57;;;;;;;22.87;9.00;;;;;;;-3.22;87.03;101601.66;4200140;28;20235;-76
2022/03/10 02:02:24;;;;;;;25.53;9.40;;;;;;;-3.26;86.61;101610.38;4189974;28;20357;-75
2022/03/10 02:04:51;;;;;;;23.63;9.30;;;;;;;-3.27;87.03;101609.53;4185326;28;20236;-76
2022/03/10 02:10:18;;;;;;;22.37;9.37;;;;;;;-3.34;87.24;101620.09;4182921;28;20351;-76
2022/03/10 02:12:49;;;;;;;25.10;9.13;;;;;;;-3.46;87.89;101619.41;4173065;28;20232;-75
2022/03/10 02:18:03;;;;;;;28.23;10.20;;;;;;;-3.38;87.69;101626.22;4186936;28;22231;-74
2022/03/10 02:20:30;;;;;;;24.57;10.27;;;;;;;-3.43;87.19;101621.09;4201796;28;20252;-75
2022/03/10 02:22:57;;;;;;;23.13;10.23;;;;;;;-3.49;87.92;101624.69;4188365;28;25531;-80
2022/03/10 02:25:25;;;;;;;25.10;10.07;;;;;;;-3.49;87.48;101631.59;4180025;28;20293;-76
2022/03/10 02:27:52;;;;;;;24.83;10.07;;;;;;;-3.53;87.72;101628.22;4175037;28;22285;-77
2022/03/10 02:30:20;;;;;;;25.93;9.63;;;;;;;-3.52;87.50;101632.53;4198219;28;20332;-77
2022/03/10 02:32:47;;;;;;;24.03;9.57;;;;;;;-3.48;87.08;101633.34;4182855;28;20233;-76
2022/03/10 02:35:17;;;;;;;30.53;10.20;;;;;;;-3.58;87.52;101634.34;4176823;28;20245;-79
2022/03/10 02:37:44;;;;;;;23.63;9.40;;;;;;;-3.52;86.93;101642.91;4171842;28;20236;-76
2022/03/10 02:40:11;;;;;;;22.10;9.47;;;;;;;-3.49;86.49;101648.09;4176919;28;20247;-76
2022/03/10 02:42:38;;;;;;;22.50;8.93;;;;;;;-3.56;87.01;101649.06;4179488;28;20560;-76
2022/03/10 02:45:05;;;;;;;23.50;9.77;;;;;;;-3.58;87.47;101652.56;4191727;28;20240;-75
2022/03/10 02:47:32;;;;;;;24.03;9.77;;;;;;;-3.55;87.72;101660.34;4183641;28;20283;-77
2022/03/10 02:49:59;;;;;;;23.93;9.67;;;;;;;-3.57;87.07;101659.50;4183935;28;24226;-75
2022/03/10 02:52:25;;;;;;;26.57;9.30;;;;;;;-3.67;87.53;101670.06;4182800;28;20241;-75
2022/03/10 02:54:52;;;;;;;26.43;9.87;;;;;;;-3.65;87.33;101670.03;4188276;28;20280;-77
2022/03/10 02:57:18;;;;;;;27.10;10.47;;;;;;;-3.72;88.07;101678.78;4184204;28;21395;-77
2022/03/10 02:59:45;;;;;;;23.27;9.77;;;;;;;-3.64;88.00;101675.19;4185782;28;22620;-79
2022/03/10 03:02:12;;;;;;;24.87;9.83;;;;;;;-3.65;87.66;101681.31;4191070;28;20249;-74
2022/03/10 03:04:40;;;;;;;25.40;10.03;;;;;;;-3.73;87.58;101684.88;4185676;28;22154;-76
2022/03/10 03:07:06;;;;;;;24.57;9.90;;;;;;;-3.76;88.07;101692.75;4203186;28;21335;-78
2022/03/10 03:09:33;;;;;;;27.03;10.10;;;;;;;-3.84;88.21;101693.72;4184804;28;20796;-77
2022/03/10 03:11:59;;;;;;;28.57;10.10;;;;;;;-3.79;88.29;101687.56;4194413;28;20348;-77
2022/03/10 03:14:26;;;;;;;24.97;10.37;;;;;;;-3.81;87.98;101695.41;4183975;28;20300;-74
2022/03/10 03:16:57;;;;;;;26.67;9.97;;;;;;;-3.81;87.85;101695.41;4181002;28;20262;-76
2022/03/10 03:19:24;;;;;;;21.57;9.23;;;;;;;-3.79;88.04;101697.97;4199698;28;23959;-76
2022/03/10 03:21:51;;;;;;;25.20;9.63;;;;;;;-3.86;88.00;101703.28;4171080;28;21445;-77
2022/03/10 03:24:18;;;;;;;19.77;8.93;;;;;;;-3.90;87.88;101714.59;4196785;28;21198;-78
2022/03/10 03:26:47;;;;;;;25.30;10.13;;;;;;;-3.83;87.63;101711.03;4192777;28;20241;-75
2022/03/10 03:29:14;;;;;;;21.70;10.17;;;;;;;-3.92;87.41;101718.09;4185166;28;20232;-76
2022/03/10 03:31:40;;;;;;;27.87;10.07;;;;;;;-4.01;87.28;101720.81;4181692;28;20684;-78
2022/03/10 03:34:10;;;;;;;23.43;9.27;;;;;;;-4.08;87.50;101714.84;4196182;28;21171;-75
2022/03/10 03:36:41;;;;;;;22.63;9.77;;;;;;;-4.07;87.36;101724.38;4191643;28;20272;-77
2022/03/10 03:39:08;;;;;;;25.97;9.23;;;;;;;-3.99;86.97;101727.72;4198507;28;20228;-77
2022/03/10 03:41:35;;;;;;;26.00;9.40;;;;;;;-4.03;87.32;101729.53;4198701;28;20245;-77
2022/03/10 03:44:02;;;;;;;22.87;9.53;;;;;;;-4.05;87.13;101738.19;4175673;28;21671;-77
2022/03/10 03:46:29;;;;;;;24.97;9.90;;;;;;;-4.01;86.41;101739.88;4184405;28;20232;-76
2022/03/10 03:48:56;;;;;;;22.17;8.53;;;;;;;-4.05;86.64;101746.00;4193590;28;21362;-76
2022/03/10 03:51:22;;;;;;;22.40;8.17;;;;;;;-4.04;86.27;101750.31;4194381;28;20241;-78
2022/03/10 03:53:49;;;;;;;24.10;8.97;;;;;;;-4.20;86.77;101754.00;4204199;28;20316;-79
2022/03/10 03:56:15;;;;;;;23.40;8.80;;;;;;;-4.22;86.19;101753.16;4185718;28;22843;-78
2022/03/10 03:58:42;;;;;;;22.10;8.37;;;;;;;-4.28;85.84;101757.53;4189298;28;20243;-76
2022/03/10 04:01:11;;;;;;;22.40;8.70;;;;;;;-4.43;85.59;101762.91;4183030;28;20275;-77
2022/03/10 04:03:38;;;;;;;26.33;9.10;;;;;;;-4.34;84.74;101749.81;4189013;28;21543;-78
2022/03/10 04:06:05;;;;;;;22.83;8.77;;;;;;;-4.30;84.59;101764.50;4193416;28;21751;-78
2022/03/10 04:08:31;;;;;;;22.53;8.30;;;;;;;-4.34;84.56;101762.81;4207776;28;20229;-74
2022/03/10 04:10:58;;;;;;;23.43;8.43;;;;;;;-4.44;84.46;101760.34;4194013;28;20308;-77
2022/03/10 04:13:24;;;;;;;24.07;8.70;;;;;;;-4.33;83.92;101764.53;4192201;28;20942;-76
2022/03/10 04:15:51;;;;;;;23.00;8.13;;;;;;;-4.46;84.03;101770.75;4186690;28;20316;-75
2022/03/10 04:18:18;;;;;;;20.83;7.73;;;;;;;-4.54;83.90;101768.22;4189725;28;20229;-76
2022/03/10 04:20:46;;;;;;;31.47;8.23;;;;;;;-4.50;83.43;101771.63;4190661;28;20236;-74
2022/03/10 04:23:14;;;;;;;20.77;8.30;;;;;;;-4.53;83.07;101775.13;4208518;28;20240;-77
2022/03/10 04:25:41;;;;;;;23.10;7.47;;;;;;;-4.45;82.53;101777.66;4196623;28;21912;-75
2022/03/10 04:28:07;;;;;;;21.23;7.83;;;;;;;-4.46;82.38;101779.38;4191449;28;20604;-77
2022/03/10 04:30:34;;;;;;;22.70;7.07;;;;;;;-4.46;81.83;101781.13;4195419;28;21255;-76
2022/03/10 04:33:01;;;;;;;24.37;7.50;;;;;;;-4.48;81.52;101775.94;4191696;28;20246;-74
2022/03/10 04:35:28;;;;;;;15.83;6.73;;;;;;;-4.52;81.33;101779.47;4190442;28;20240;-77
2022/03/10 04:37:55;;;;;;;19.30;7.27;;;;;;;-4.54;80.60;101790.72;4195807;28;22725;-75
2022/03/10 04:40:22;;;;;;;20.53;7.17;;;;;;;-4.57;80.49;101791.63;4192361;28;21338;-76
2022/03/10 04:42:50;;;;;;;21.00;7.33;;;;;;;-4.56;80.22;101795.09;4180499;28;20230;-75
2022/03/10 04:45:17;;;;;;;23.43;7.30;;;;;;;-4.58;80.24;101795.09;4188296;28;20359;-76
2022/03/10 04:47:44;;;;;;;16.97;7.40;;;;;;;-4.66;80.43;101796.91;4188221;28;20232;-73
2022/03/10 04:50:12;;;;;;;20.60;7.03;;;;;;;-4.72;80.30;101800.44;4191059;28;22509;-74
2022/03/10 04:52:39;;;;;;;26.67;6.90;;;;;;;-4.72;80.01;101807.38;4199309;28;20267;-73
2022/03/10 04:55:06;;;;;;;15.87;6.63;;;;;;;-4.80;80.60;101804.84;4203421;28;21292;-74
2022/03/10 04:57:34;;;;;;;22.93;8.77;;;;;;;-4.73;80.26;101805.63;4218843;28;20907;-74
2022/03/10 05:00:05;;;;;;;19.47;7.73;;;;;;;-4.86;80.35;101817.88;4215288;28;21515;-73
2022/03/10 05:02:32;;;;;;;18.33;7.40;;;;;;;-4.92;80.91;101817.91;4225141;28;20275;-77
2022/03/10 05:04:58;;;;;;;20.17;6.63;;;;;;;-4.84;80.20;101820.47;4230869;28;20236;-76
2022/03/10 05:07:25;;;;;;;23.70;7.47;;;;;;;-4.81;79.84;101829.06;4207180;28;20224;-77
2022/03/10 05:09:52;;;;;;;19.63;6.23;;;;;;;-4.82;79.60;101832.56;4255114;28;20294;-75
2022/03/10 05:12:18;;;;;;;21.37;6.43;;;;;;;-4.88;79.54;101832.59;4237803;28;23471;-76
2022/03/10 05:14:45;;;;;;;15.87;6.33;;;;;;;-4.86;79.22;101840.38;4230686;28;20346;-77
2022/03/10 05:17:11;;;;;;;18.97;7.07;;;;;;;-4.83;78.84;101841.19;4224743;28;20309;-77
2022/03/10 05:19:38;;;;;;;18.13;6.40;;;;;;;-4.79;79.08;101853.28;4228911;28;21792;-76
2022/03/10 05:22:05;;;;;;;13.63;6.07;;;;;;;-4.81;78.86;101852.44;4253294;28;20267;-76
2022/03/10 05:24:31;;;;;;;17.07;6.20;;;;;;;-4.84;78.13;101852.47;4206469;28;21598;-75
2022/03/10 05:26:58;;;;;;;19.90;6.40;;;;;;;-4.82;78.10;101863.72;4238153;28;20235;-76
2022/03/10 05:29:25;;;;;;;18.30;7.00;;;;;;;-4.78;77.83;101875.78;4213897;28;21541;-78
2022/03/10 05:31:52;;;;;;;21.93;7.37;;;;;;;-4.73;77.25;101874.03;4215119;28;20289;-77
2022/03/10 05:34:19;;;;;;;49.90;12.90;;;;;;;-4.62;76.80;101875.66;4236190;28;20302;-77
2022/03/10 05:36:45;;;;;;;23.77;7.27;;;;;;;-4.67;76.75;101884.34;4206064;28;21298;-76
2022/03/10 05:39:13;;;;;;;66.37;14.70;;;;;;;-4.77;77.07;101887.03;4225884;28;20868;-76
2022/03/10 05:41:40;;;;;;;40.93;12.13;;;;;;;-4.68;76.64;101893.03;4202995;28;20252;-75
2022/03/10 05:44:07;;;;;;;32.47;9.80;;;;;;;-4.67;76.13;101899.06;4186510;28;20281;-77
2022/03/10 05:46:33;;;;;;;26.67;9.20;;;;;;;-4.58;76.45;101901.59;4218413;28;21305;-75
2022/03/10 05:49:00;;;;;;;20.33;7.30;;;;;;;-4.52;75.69;101900.66;4198379;28;20781;-69
2022/03/10 05:51:26;;;;;;;19.80;5.83;;;;;;;-4.57;75.27;101905.91;4192513;28;20232;-71
2022/03/10 05:53:53;;;;;;;13.50;5.50;;;;;;;-4.56;75.47;101912.00;4218885;28;20318;-73
2022/03/10 05:56:20;;;;;;;15.63;5.33;;;;;;;-4.52;74.71;101914.56;4200833;28;20232;-72
2022/03/10 05:58:46;;;;;;;21.33;6.47;;;;;;;-4.58;74.66;101913.72;4203590;28;21414;-69
2022/03/10 06:01:14;;;;;;;26.93;8.37;;;;;;;-4.67;75.47;101923.31;4202078;28;21717;-73
2022/03/10 06:03:41;;;;;;;40.27;10.33;;;;;;;-4.57;75.56;101923.22;4173745;28;20236;-71
2022/03/10 06:06:11;;;;;;;24.20;7.27;;;;;;;-4.48;74.77;101920.56;4192709;28;20262;-72
2022/03/10 06:08:38;;;;;;;19.77;6.50;;;;;;;-4.33;73.79;101929.97;4236600;28;20237;-72
2022/03/10 06:11:07;;;;;;;17.83;5.80;;;;;;;-4.41;73.34;101936.97;4204900;28;21216;-73
2022/03/10 06:13:34;;;;;;;15.40;5.60;;;;;;;-4.32;72.33;101942.09;4192218;28;20694;-73
2022/03/10 06:16:01;;;;;;;12.10;5.07;;;;;;;-4.36;71.71;101945.59;4200033;28;20255;-73
2022/03/10 06:18:27;;;;;;;13.87;5.47;;;;;;;-4.38;72.02;101955.97;4210858;28;20302;-70
2022/03/10 06:20:54;;;;;;;14.70;5.70;;;;;;;-4.29;71.60;101958.50;4220619;28;20228;-72
2022/03/10 06:23:20;;;;;;;16.20;5.13;;;;;;;-4.26;71.84;101960.25;4220123;28;21020;-73
2022/03/10 06:25:48;;;;;;;17.80;5.93;;;;;;;-4.23;71.09;101957.59;4216529;28;20245;-70
2022/03/10 06:28:15;;;;;;;20.70;5.30;;;;;;;-4.23;71.14;101964.56;4227338;28;20240;-69
2022/03/10 06:30:42;;;;;;;20.57;6.10;;;;;;;-4.16;71.20;101979.22;4214441;28;20232;-72
2022/03/10 06:33:10;;;;;;;12.30;5.37;;;;;;;-4.03;70.04;101978.22;4219349;28;20273;-74
2022/03/10 06:35:36;;;;;;;15.57;5.33;;;;;;;-3.97;69.75;101980.75;4211401;28;20652;-70
2022/03/10 06:38:03;;;;;;;17.27;5.67;;;;;;;-3.97;68.69;101985.97;4194430;28;20233;-70
2022/03/10 06:40:30;;;;;;;12.87;5.67;;;;;;;-3.98;69.58;101984.25;4218368;28;20257;-71
2022/03/10 06:42:56;;;;;;;17.57;5.40;;;;;;;-3.94;69.10;101982.47;4201265;28;21221;-74
2022/03/10 06:45:23;;;;;;;16.97;5.67;;;;;;;-3.83;68.44;101989.28;4189661;28;20304;-68
2022/03/10 06:47:50;;;;;;;14.27;5.27;;;;;;;-3.83;68.02;101989.28;4181759;28;20239;-71
2022/03/10 06:50:16;;;;;;;18.77;5.83;;;;;;;-3.71;68.31;101993.50;4207248;28;21995;-73
2022/03/10 06:52:43;;;;;;;13.47;5.40;;;;;;;-3.62;67.46;101990.81;4206617;28;20247;-69
2022/03/10 06:55:10;;;;;;;19.93;6.10;;;;;;;-3.55;67.16;101999.44;4209796;28;20358;-68
2022/03/10 06:57:36;;;;;;;16.43;5.07;;;;;;;-3.54;66.27;102000.28;4202537;28;23190;-69
2022/03/10 07:00:05;;;;;;;15.03;5.07;;;;;;;-3.50;65.75;102001.97;4216437;28;23003;-70
2022/03/10 07:02:31;;;;;;;13.97;4.87;;;;;;;-3.42;64.95;102006.22;4196755;28;20361;-68
2022/03/10 07:04:58;;;;;;;18.67;5.67;;;;;;;-3.30;64.96;102005.22;4197851;28;21876;-69
2022/03/10 07:07:25;;;;;;;13.73;4.90;;;;;;;-3.23;63.42;102003.38;4219079;28;20232;-68
2022/03/10 07:09:51;;;;;;;14.73;5.47;;;;;;;-3.20;63.60;102011.19;4184398;28;21684;-69
2022/03/10 07:12:18;;;;;;;11.90;4.60;;;;;;;-3.11;62.63;102011.06;4194042;28;20293;-70
2022/03/10 07:14:44;;;;;;;11.73;4.43;;;;;;;-3.15;62.97;102014.59;4192157;28;20685;-70
2022/03/10 07:17:11;;;;;;;11.57;4.47;;;;;;;-3.19;62.50;102011.13;4215073;28;20337;-72
2022/03/10 07:19:38;;;;;;;12.40;4.53;;;;;;;-3.08;62.56;102010.16;4204585;28;22639;-72
2022/03/10 07:22:05;;;;;;;12.63;4.67;;;;;;;-2.99;61.56;102012.66;4196633;28;20285;-72
2022/03/10 07:24:31;;;;;;;11.40;4.10;;;;;;;-3.05;61.47;102021.38;4179843;28;20235;-71
2022/03/10 07:26:59;;;;;;;15.63;4.67;;;;;;;-2.82;61.50;102018.50;4182650;28;20271;-70
2022/03/10 07:29:26;;;;;;;12.13;4.47;;;;;;;-2.73;60.95;102017.53;4198296;28;20330;-70
2022/03/10 07:31:55;;;;;;;10.80;4.53;;;;;;;-2.62;60.58;102020.84;4204835;28;20229;-70
2022/03/10 07:34:22;;;;;;;13.13;4.40;;;;;;;-2.14;58.21;102023.56;4205873;28;23538;-74
2022/03/10 07:36:48;;;;;;;14.93;4.23;;;;;;;-1.33;55.99;102028.28;4248553;28;20309;-77
2022/03/10 07:39:15;;;;;;;10.17;4.40;;;;;;;0.31;50.98;102037.63;4193798;28;21593;-69
2022/03/10 07:41:42;;;;;;;15.07;4.53;;;;;;;3.31;43.90;102051.72;4302475;28;20280;-69
2022/03/10 07:44:08;;;;;;;14.87;3.90;;;;;;;5.59;36.24;102067.47;4270611;28;20232;-73
2022/03/10 07:46:35;;;;;;;15.73;4.50;;;;;;;8.35;31.90;102070.53;4229835;28;20915;-73
2022/03/10 07:49:05;;;;;;;18.37;3.90;;;;;;;11.16;26.58;102079.03;4304135;28;21821;-69
2022/03/10 07:51:32;;;;;;;10.57;4.00;;;;;;;11.01;24.77;102087.25;4270374;28;21521;-76
2022/03/10 07:54:02;;;;;;;8.57;3.80;;;;;;;11.18;24.41;102081.59;4242950;28;22245;-70
2022/03/10 07:56:28;;;;;;;10.67;3.83;;;;;;;9.54;25.08;102085.44;4233382;28;20242;-72
2022/03/10 07:58:55;;;;;;;11.93;3.80;;;;;;;11.70;23.43;102093.84;4290857;28;20350;-72
2022/03/10 08:01:21;;;;;;;13.57;4.67;;;;;;;12.58;21.65;102098.91;4223613;28;20282;-73
2022/03/10 08:03:48;;;;;;;11.27;4.60;;;;;;;13.25;19.83;102102.63;4248549;28;20702;-65
2022/03/10 08:06:16;;;;;;;11.80;3.87;;;;;;;13.18;20.41;102102.28;4216328;28;20241;-70
2022/03/10 08:08:43;;;;;;;14.47;4.20;;;;;;;11.74;20.74;102091.81;4263103;28;20296;-71
2022/03/10 08:11:11;;;;;;;10.70;4.20;;;;;;;10.24;22.91;102087.13;4225118;28;20983;-72
2022/03/10 08:13:38;;;;;;;10.60;4.23;;;;;;;10.20;23.08;102097.09;4265200;28;20235;-73
2022/03/10 08:16:04;;;;;;;9.93;3.97;;;;;;;10.80;22.08;102087.78;4234934;28;21201;-71
2022/03/10 08:18:32;;;;;;;8.20;4.10;;;;;;;12.43;20.55;102089.38;4238002;28;20236;-75
2022/03/10 08:21:05;;;;;;;9.77;3.93;;;;;;;11.39;21.03;102093.38;4208007;28;21237;-74
2022/03/10 08:23:31;;;;;;;16.07;4.30;;;;;;;10.21;22.21;102084.66;4216591;28;20240;-74
2022/03/10 08:25:58;;;;;;;7.63;3.60;;;;;;;9.31;22.88;102078.91;4238124;28;20250;-72
2022/03/10 08:28:26;;;;;;;13.17;4.47;;;;;;;9.05;24.25;102075.22;4211038;28;22188;-58
2022/03/10 08:30:52;;;;;;;10.00;3.70;;;;;;;9.27;24.57;102072.97;4275120;28;20231;-68
2022/03/10 08:33:20;;;;;;;9.10;4.10;;;;;;;9.23;23.38;102070.59;4233707;28;21638;-76
2022/03/10 08:35:46;;;;;;;12.17;4.30;;;;;;;9.82;23.21;102081.00;4242574;28;20455;-76
2022/03/10 08:38:16;;;;;;;7.90;3.27;;;;;;;9.71;21.88;102079.88;4227532;28;20568;-75
2022/03/10 08:40:42;;;;;;;6.73;3.60;;;;;;;9.00;23.12;102078.16;4206737;28;22687;-67
2022/03/10 08:43:13;;;;;;;13.40;4.07;;;;;;;9.14;22.50;102081.78;4260896;28;20240;-73
2022/03/10 08:45:40;;;;;;;9.03;3.60;;;;;;;8.61;23.07;102068.16;4273748;28;20706;-75
2022/03/10 08:48:07;;;;;;;7.23;3.13;;;;;;;7.52;24.65;102069.97;4255006;28;20707;-77
2022/03/10 08:50:34;;;;;;;7.67;3.53;;;;;;;7.19;25.38;102065.59;4280796;28;21558;-78
2022/03/10 08:53:00;;;;;;;6.07;3.17;;;;;;;7.73;24.19;102075.03;4293942;28;20304;-75
2022/03/10 08:55:33;;;;;;;7.33;3.20;;;;;;;6.75;24.39;102074.06;4208346;28;22249;-78
2022/03/10 08:58:00;;;;;;;10.37;3.47;;;;;;;4.35;28.36;102067.75;4273621;28;20246;-79
2022/03/10 09:00:27;;;;;;;6.47;3.43;;;;;;;3.24;29.05;102058.97;4251106;28;20240;-71
2022/03/10 09:02:56;;;;;;;9.70;4.33;;;;;;;2.04;32.12;102055.31;4294827;28;20937;-75
2022/03/10 09:05:24;;;;;;;12.33;3.87;;;;;;;1.44;33.65;102046.69;4293591;28;21417;-73
2022/03/10 09:07:51;;;;;;;9.57;3.50;;;;;;;1.53;33.50;102049.94;4310747;28;20695;-71
2022/03/10 09:10:18;;;;;;;6.17;3.07;;;;;;;1.21;34.65;102044.75;4217501;28;20240;-76
2022/03/10 09:12:45;;;;;;;9.20;3.00;;;;;;;1.20;34.78;102055.28;4270839;28;20236;-75
2022/03/10 09:15:16;;;;;;;7.23;3.10;;;;;;;0.99;34.19;102047.13;4387568;28;20237;-71
2022/03/10 09:17:42;;;;;;;8.00;2.83;;;;;;;0.99;34.12;102046.28;4269434;28;20325;-73
2022/03/10 09:20:11;;;;;;;8.13;3.07;;;;;;;1.11;33.66;102048.53;4289952;28;20299;-75
2022/03/10 09:22:37;;;;;;;6.40;2.87;;;;;;;1.27;33.42;102047.19;4231869;28;20297;-72
2022/03/10 09:25:08;;;;;;;8.40;3.30;;;;;;;1.24;32.65;102047.28;4238324;28;21728;-71
2022/03/10 09:27:39;;;;;;;9.03;3.10;;;;;;;0.91;33.51;102040.38;4251116;28;21336;-77
2022/03/10 09:30:09;;;;;;;7.10;3.20;;;;;;;1.08;34.40;102040.78;4257632;28;20348;-77
2022/03/10 09:32:41;;;;;;;7.93;3.43;;;;;;;1.18;33.53;102034.34;4302295;28;20774;-75
2022/03/10 09:35:09;;;;;;;7.30;2.57;;;;;;;1.32;32.61;102030.47;4264024;28;21164;-72
2022/03/10 09:37:36;;;;;;;8.43;2.93;;;;;;;0.88;32.80;102037.88;4242177;28;21181;-73
2022/03/10 09:40:03;;;;;;;7.60;2.60;;;;;;;0.79;34.31;102029.34;4261952;28;21665;-72
2022/03/10 09:42:31;;;;;;;9.70;3.20;;;;;;;0.75;34.60;102037.31;4289377;28;20236;-71
2022/03/10 09:45:01;;;;;;;9.60;2.83;;;;;;;0.67;35.11;102031.47;4243247;28;21794;-72
2022/03/10 09:47:28;;;;;;;7.80;3.10;;;;;;;0.78;36.75;102027.63;4264051;28;20236;-68
2022/03/10 09:49:55;;;;;;;7.30;2.87;;;;;;;0.65;35.33;102030.63;4237498;28;27389;-74
2022/03/10 09:52:22;;;;;;;7.10;3.10;;;;;;;0.71;36.26;102030.47;4232498;28;20228;-69
2022/03/10 09:54:50;;;;;;;10.50;2.97;;;;;;;0.73;35.07;102037.41;4242769;28;20710;-73
2022/03/10 09:57:17;;;;;;;9.43;3.10;;;;;;;0.44;35.41;102026.84;4223945;28;20671;-75
2022/03/10 09:59:51;;;;;;;12.60;3.50;;;;;;;0.40;36.46;102036.53;4259971;28;20837;-77
2022/03/10 10:02:18;;;;;;;8.73;3.50;;;;;;;0.86;36.83;102040.50;4227624;28;20237;-76
2022/03/10 10:04:46;;;;;;;8.30;3.30;;;;;;;0.75;37.14;102043.44;4217574;28;21893;-71
2022/03/10 10:07:15;;;;;;;7.60;3.37;;;;;;;0.69;37.07;102054.09;4242496;28;20249;-72
2022/03/10 10:09:46;;;;;;;8.73;3.30;;;;;;;0.58;36.16;102045.66;4233178;28;21948;-75
2022/03/10 10:12:16;;;;;;;7.13;2.87;;;;;;;0.77;34.07;102053.88;4262470;28;20344;-75
2022/03/10 10:14:46;;;;;;;9.43;3.07;;;;;;;0.73;35.05;102057.50;4259711;28;23332;-73
2022/03/10 10:17:15;;;;;;;9.47;2.90;;;;;;;0.93;35.01;102062.19;4192449;28;21981;-72
2022/03/10 10:19:45;;;;;;;10.00;3.80;;;;;;;0.97;34.56;102058.56;4208277;28;20362;-72
2022/03/10 10:22:32;;;;;;;10.47;3.80;;;;;;;1.20;34.63;102066.63;4188683;28;20320;-69
2022/03/10 10:25:02;;;;;;;6.33;3.20;;;;;;;0.68;34.49;102056.75;4179602;28;20281;-72
2022/03/10 10:27:33;;;;;;;8.27;3.13;;;;;;;0.75;35.27;102053.94;4190227;28;20236;-69
2022/03/10 10:30:03;;;;;;;6.73;2.90;;;;;;;1.02;34.29;102056.69;4189187;28;21637;-76
2022/03/10 10:32:46;;;;;;;5.67;2.53;;;;;;;1.27;33.97;102057.69;4185401;28;22708;-73
2022/03/10 10:35:20;;;;;;;7.17;3.30;;;;;;;1.24;34.01;102068.28;4216147;28;21014;-72
2022/03/10 10:37:51;;;;;;;7.30;3.13;;;;;;;1.41;33.57;102070.38;4193600;28;22161;-75
2022/03/10 10:40:20;;;;;;;8.70;3.50;;;;;;;1.07;34.11;102062.63;4198979;28;20263;-70
2022/03/10 10:42:48;;;;;;;8.17;3.10;;;;;;;0.94;34.37;102070.00;4195307;28;21410;-70
2022/03/10 10:45:35;;;;;;;8.23;3.10;;;;;;;1.07;34.27;102065.25;4182949;28;25928;-72
2022/03/10 10:48:09;;;;;;;9.47;3.03;;;;;;;1.21;34.08;102073.59;4215588;28;20532;-70
2022/03/10 10:50:40;;;;;;;8.33;3.27;;;;;;;0.91;34.32;102056.09;4191237;28;20891;-71
2022/03/10 10:53:07;;;;;;;5.00;2.87;;;;;;;0.52;34.31;102053.69;4180512;28;20255;-70
2022/03/10 10:55:38;;;;;;;7.77;3.23;;;;;;;0.49;35.12;102044.16;4196274;28;20254;-71
2022/03/10 10:58:14;;;;;;;7.50;3.13;;;;;;;0.62;35.47;102052.53;4186617;28;22497;-72
2022/03/10 11:00:46;;;;;;;8.50;3.30;;;;;;;0.71;35.69;102054.06;4192137;28;23077;-73
2022/03/10 11:03:31;;;;;;;9.20;3.47;;;;;;;1.02;34.85;102054.91;4189743;28;20363;-70
2022/03/10 11:05:58;;;;;;;8.77;2.93;;;;;;;1.09;33.69;102058.22;4214174;28;20241;-70
2022/03/10 11:08:26;;;;;;;7.60;3.13;;;;;;;0.61;33.77;102058.69;4177510;28;20678;-72
2022/03/10 11:10:53;;;;;;;7.07;3.43;;;;;;;0.58;34.80;102053.50;4192600;28;20255;-71
2022/03/10 11:13:23;;;;;;;5.53;2.70;;;;;;;0.59;33.80;102045.63;4190800;28;20260;-71
2022/03/10 11:15:53;;;;;;;9.17;3.00;;;;;;;0.98;34.30;102049.78;4188221;28;20232;-71
2022/03/10 11:18:23;;;;;;;6.03;2.80;;;;;;;1.27;33.50;102057.69;4175096;28;20230;-70
2022/03/10 11:21:08;;;;;;;7.33;3.40;;;;;;;1.42;34.73;102060.75;4187224;28;26378;-69
2022/03/10 11:23:56;;;;;;;6.17;2.60;;;;;;;1.52;32.39;102056.94;4179756;28;20265;-71
2022/03/10 11:26:26;;;;;;;8.10;2.83;;;;;;;1.24;31.55;102056.91;4175986;28;21624;-74
2022/03/10 11:28:54;;;;;;;7.53;2.77;;;;;;;1.22;32.30;102059.59;4174313;28;20303;-71
2022/03/10 11:31:21;;;;;;;6.23;2.90;;;;;;;1.14;32.30;102066.81;4189613;28;21849;-73